METAR v bližini

 

LJLJ - Ljubljana/Brnik, Slovenia
Oddaljenost od postaje: W 41km
Podatki zajeti: 05/07/2022 08:30
Rahlo oblačno
Rahlo oblačno
 Veter iz smeri SE
Veter: SE 2 km/h
Temperatura: 20°C
Rosišče: 18°C
Vlažnost: 88%
Tlak: 1017 hPa
Oblačnost: Rahlo oblačno
Vidljivost: 10 km
Podrobnosti o oblakih: Rahlo oblačno 183 m
2022/07/05 06:30 LJLJ 050630Z 14001KT 9999 FEW006 20/18 Q1017 NOSIG
LJMB - Maribor, Slovenia
Oddaljenost od postaje: NE 63km
Podatki zajeti: 05/07/2022 08:30
Rahlo dežuje, Oblačno
Rahlo dežuje, Oblačno
 Veter iz smeri spremenljiv
Veter: spremenljiv 4 km/h
Temperatura: 18°C
Rosišče: 18°C
Vlažnost: 100%
Tlak: 1018 hPa
Stanje: Rahlo dežuje
Oblačnost: Oblačno
Vidljivost: 10 km
Podrobnosti o oblakih: Delno oblačno 701 m
Oblačno 1311 m
2022/07/05 06:30 LJMB 050630Z VRB02KT 9999 -RA SCT023 OVC043 18/18 Q1018
 
LJPZ - Portoroz, Slovenia
Oddaljenost od postaje: SW 130km
Podatki zajeti: 05/07/2022 08:30
Jasno
Jasno
 Veter iz smeri spremenljiv
Veter: spremenljiv 2 km/h
Temperatura: 27°C
Toplotni indeks: 28°C
Rosišče: 18°C
Vlažnost: 58%
Tlak: 1013 hPa
Stanje: Jasno
Vidljivost: večja od 10 km
2022/07/05 06:30 LJPZ 050630Z VRB01KT CAVOK 27/18 Q1013
LJCE - Cerklje, Slovenia
Oddaljenost od postaje: ESE 49km
Podatki zajeti: 05/07/2022 08:30
Pretežno oblačno
Pretežno oblačno
 Veter iz smeri spremenljiv
Veter: spremenljiv 4 km/h
Temperatura: 21°C
Rosišče: 18°C
Vlažnost: 83%
Tlak: 1017 hPa
Oblačnost: Pretežno oblačno
Vidljivost: 10 km
Podrobnosti o oblakih: Rahlo oblačno 122 m
Delno oblačno 2134 m
Pretežno oblačno 3353 m
2022/07/05 06:30 LJCE 050630Z VRB02KT 9999 FEW004 SCT070 BKN110 21/18 Q1017 RMK BLU
 
LDZA - Zagreb/Pleso, Croatia
Oddaljenost od postaje: ESE 96km
Podatki zajeti: 05/07/2022 08:30
Jasno
Jasno
 Veter iz smeri E
Veter: E 11 km/h
Temperatura: 22°C
Rosišče: 19°C
Vlažnost: 83%
Tlak: 1016 hPa
Stanje: Jasno
Vidljivost: večja od 10 km
2022/07/05 06:30 LDZA 050630Z 09006KT 040V150 CAVOK 22/19 Q1016 NOSIG
LDRI - Rijeka/Omisalj, Croatia
Oddaljenost od postaje: SSW 109km
Podatki zajeti: 05/07/2022 08:30
Rahlo oblačno
Rahlo oblačno
 Veter iz smeri spremenljiv
Veter: spremenljiv 4 km/h
Temperatura: 28°C
Toplotni indeks: 29°C
Rosišče: 19°C
Vlažnost: 58%
Tlak: 1014 hPa
Oblačnost: Rahlo oblačno
Vidljivost: 10 km
Podrobnosti o oblakih: Rahlo oblačno 1524 m
2022/07/05 06:30 LDRI 050630Z VRB02KT 9999 FEW050 28/19 Q1014
 
LDPL - Pula, Croatia
Oddaljenost od postaje: SSW 164km
Podatki zajeti: 05/07/2022 08:30
Jasno
Jasno
 Veter iz smeri NW
Veter: NW 9 km/h
Temperatura: 28°C
Toplotni indeks: 29°C
Rosišče: 19°C
Vlažnost: 58%
Tlak: 1014 hPa
Stanje: Jasno
Vidljivost: večja od 10 km
2022/07/05 06:30 LDPL 050630Z 32005KT CAVOK 28/19 Q1014 BECMG 27008KT
LOWK - Klagenfurt(Civ/M, Austria
Oddaljenost od postaje: NW 76km
Podatki zajeti: 05/07/2022 08:20
Pretežno oblačno
Pretežno oblačno
 Veter iz smeri spremenljiv
Veter: spremenljiv 4 km/h
Temperatura: 19°C
Rosišče: 17°C
Vlažnost: 88%
Tlak: 1019 hPa
Oblačnost: Pretežno oblačno
Vidljivost: 10 km
Podrobnosti o oblakih: Rahlo oblačno 183 m
Delno oblačno 610 m
Pretežno oblačno 3048 m
2022/07/05 06:20 LOWK 050620Z AUTO VRB02KT 9999 FEW006 SCT020 BKN100 19/17 Q1019 NOSIG
 
LOWG - Graz (mil/Civ), Austria
Oddaljenost od postaje: NNE 100km
Podatki zajeti: 05/07/2022 08:20
Delno oblačno
Delno oblačno
 Veter iz smeri spremenljiv
Veter: spremenljiv 4 km/h
Temperatura: 19°C
Rosišče: 17°C
Vlažnost: 88%
Tlak: 1018 hPa
Oblačnost: Delno oblačno
Vidljivost: 10 km
Podrobnosti o oblakih: Rahlo oblačno 183 m
Delno oblačno 914 m
2022/07/05 06:20 LOWG 050620Z VRB02KT 9999 FEW006 SCT030 19/17 Q1018 NOSIG
LOAN - Wr.neustadt East, Austria
Oddaljenost od postaje: NNE 212km
Podatki zajeti: 04/07/2022 21:00
Ni posodobljen
Rahlo dežuje, Plohe, Rahlo oblačno
Rahlo dežuje, Plohe, Rahlo oblačno
 Veter iz smeri WSW
Veter: WSW 6 km/h
Stanje: Rahlo dežuje, Plohe
Oblačnost: Rahlo oblačno
Vidljivost: 10 km
Podrobnosti o oblakih: Rahlo oblačno 1524 m
2022/07/04 19:00 LOAN 041900Z 24003KT 9999 -SHRA FEW050CB
 
LIPQ - Ronchi Legionari, Italy
Oddaljenost od postaje: SW 35km
Podatki zajeti: 05/07/2022 08:20
Jasno
Jasno
 Veter iz smeri NNE
Veter: NNE 6 km/h
Temperatura: 27°C
Toplotni indeks: 28°C
Rosišče: 19°C
Vlažnost: 62%
Tlak: 1014 hPa
Oblačnost: Jasno
Vidljivost: 10 km
2022/07/05 06:20 LIPQ 050620Z AUTO 03003KT 310V080 9999 NCD 27/19 Q1014
LIVT - Trieste, Italy
Oddaljenost od postaje: WSW 109km
Podatki zajeti: 05/07/2022 07:55
Jasno
Jasno
 Veter iz smeri NE
Veter: NE 11 km/h
Temperatura: 27°C
Toplotni indeks: 29°C
Rosišče: 21°C
Vlažnost: 70%
Tlak: 1013 hPa
Stanje: Jasno
Vidljivost: večja od 10 km
2022/07/05 05:55 LIVT 050555Z 04006KT CAVOK 27/21 Q1013
 
LIVO - Tarvisio, Italy
Oddaljenost od postaje: NNW 49km
Podatki zajeti: 05/07/2022 07:55
Rahlo oblačno
Rahlo oblačno
 Veter iz smeri calm
Veter: Calm
Temperatura: 17°C
Rosišče: 15°C
Vlažnost: 88%
Tlak: 1019 hPa
Oblačnost: Rahlo oblačno
Vidljivost: 10 km
Podrobnosti o oblakih: Rahlo oblačno 671 m
2022/07/05 05:55 LIVO 050555Z 00000KT 9999 FEW022 17/15 Q1019
LIPZ - Venezia/Tessera, Italy
Oddaljenost od postaje: WSW 217km
Podatki zajeti: 05/07/2022 08:20
Jasno
Jasno
 Veter iz smeri NE
Veter: NE 13 km/h
Temperatura: 26°C
Rosišče: 17°C
Vlažnost: 58%
Tlak: 1014 hPa
Stanje: Jasno
Vidljivost: večja od 10 km
2022/07/05 06:20 LIPZ 050620Z 05007KT CAVOK 26/17 Q1014 NOSIG
 
LHSM - Balaton, Hungary
Oddaljenost od postaje: ENE 177km
Podatki zajeti: 05/07/2022 08:15
Dežuje, Nevihte
Dežuje, Nevihte
 Veter iz smeri NNW
Veter: NNW 9 km/h
Temperatura: 19°C
Rosišče: 18°C
Vlažnost: 94%
Tlak: 1017 hPa
Stanje: Dežuje
Oblačnost: Nevihte
Vidljivost: 10 km
Podrobnosti o oblakih: Rahlo oblačno 2408 m
2022/07/05 06:15 LHSM 050615Z AUTO 33005KT 270V350 9999 SHRA FEW079 //////CB 19/18 Q1017 NOSIG